createdAt,value
2023-04-26T00:00:55.834Z,85.29
2023-04-26T00:06:06.182Z,85.95
2023-04-26T00:11:12.780Z,86.72
2023-04-26T00:16:20.651Z,86.47
2023-04-26T00:21:28.976Z,86.45
2023-04-26T00:26:35.377Z,86.24
2023-04-26T00:31:41.724Z,86.22
2023-04-26T00:36:49.434Z,86.29
2023-04-26T00:41:58.849Z,86.30
2023-04-26T00:47:05.543Z,86.10
2023-04-26T00:52:14.269Z,86.29
2023-04-26T00:57:20.559Z,86.06
2023-04-26T01:02:27.171Z,85.72
2023-04-26T01:07:35.216Z,86.08
2023-04-26T01:12:46.972Z,85.82
2023-04-26T01:17:59.221Z,85.80
2023-04-26T01:23:07.673Z,87.08
2023-04-26T01:28:13.938Z,87.36
2023-04-26T01:33:20.238Z,87.72
2023-04-26T01:38:28.178Z,87.99
2023-04-26T01:43:34.629Z,88.56
2023-04-26T01:48:42.166Z,88.07
2023-04-26T01:53:50.085Z,88.25
2023-04-26T01:58:56.838Z,87.37
2023-04-26T02:04:03.524Z,87.65
2023-04-26T02:09:11.656Z,87.52
2023-04-26T02:14:21.848Z,86.94
2023-04-26T02:19:31.349Z,87.26
2023-04-26T02:24:40.361Z,87.42
2023-04-26T02:29:47.863Z,86.46
2023-04-26T02:34:54.843Z,85.79
2023-04-26T02:40:04.190Z,84.99
2023-04-26T02:45:11.372Z,85.33
2023-04-26T02:50:18.199Z,84.54
2023-04-26T02:55:26.610Z,84.71
2023-04-26T03:00:34.546Z,84.75
2023-04-26T03:05:41.922Z,84.01
2023-04-26T03:10:50.189Z,84.41
2023-04-26T03:15:56.759Z,83.69
2023-04-26T03:21:04.208Z,84.00
2023-04-26T03:26:12.356Z,83.50
2023-04-26T03:31:20.637Z,84.71
2023-04-26T03:36:28.882Z,84.55
2023-04-26T03:41:39.780Z,84.60
2023-04-26T03:46:48.685Z,85.24
2023-04-26T03:51:55.170Z,85.30
2023-04-26T03:57:03.372Z,84.75
2023-04-26T04:02:10.022Z,85.16
2023-04-26T04:07:16.952Z,85.21
2023-04-26T04:12:25.783Z,85.12
2023-04-26T04:17:32.672Z,84.75
2023-04-26T04:22:40.773Z,84.43
2023-04-26T04:27:50.652Z,83.29
2023-04-26T04:32:59.619Z,83.73
2023-04-26T04:38:06.680Z,82.58
2023-04-26T04:43:16.395Z,83.58
2023-04-26T04:48:23.679Z,82.71
2023-04-26T04:53:30.558Z,81.38
2023-04-26T04:58:38.850Z,80.38
2023-04-26T05:03:45.657Z,80.39
2023-04-26T05:08:52.763Z,78.54
2023-04-26T05:14:01.131Z,79.16
2023-04-26T05:19:09.545Z,79.44
2023-04-26T05:24:17.417Z,79.01
2023-04-26T05:29:27.269Z,78.96
2023-04-26T05:34:43.521Z,78.69
2023-04-26T05:39:54.912Z,79.02
2023-04-26T05:45:02.912Z,78.63
2023-04-26T05:50:13.983Z,77.98
2023-04-26T05:55:21.796Z,77.11
2023-04-26T06:00:30.978Z,75.26
2023-04-26T06:05:39.944Z,76.60
2023-04-26T06:10:47.726Z,75.94
2023-04-26T06:15:56.287Z,75.10
2023-04-26T06:21:04.292Z,74.75
2023-04-26T06:26:10.817Z,74.98
2023-04-26T06:31:20.269Z,74.16
2023-04-26T06:36:31.775Z,73.88
2023-04-26T06:41:38.720Z,73.95
2023-04-26T06:46:46.780Z,73.79
2023-04-26T06:51:55.218Z,73.95
2023-04-26T06:57:02.605Z,73.97
2023-04-26T07:02:11.337Z,74.23
2023-04-26T07:07:18.473Z,73.58
2023-04-26T07:12:25.297Z,73.97
2023-04-26T07:17:33.281Z,72.88
2023-04-26T07:22:40.476Z,73.41
2023-04-26T07:27:48.436Z,72.48
2023-04-26T07:32:56.631Z,72.91
2023-04-26T07:38:03.585Z,72.57
2023-04-26T07:43:10.348Z,72.13
2023-04-26T07:48:18.439Z,71.86
2023-04-26T07:53:25.303Z,71.64
2023-04-26T07:58:33.340Z,71.45
2023-04-26T08:03:41.194Z,70.85
2023-04-26T08:08:50.934Z,71.07
2023-04-26T08:13:57.613Z,70.11
2023-04-26T08:19:05.469Z,69.23
2023-04-26T08:24:12.402Z,66.61
2023-04-26T08:29:19.226Z,67.95
2023-04-26T08:34:28.813Z,65.90
2023-04-26T08:39:36.198Z,64.93
2023-04-26T08:44:45.330Z,64.58
2023-04-26T08:50:00.190Z,64.76
2023-04-26T08:55:09.608Z,64.43
2023-04-26T09:00:16.887Z,63.48
2023-04-26T09:05:27.065Z,62.55
2023-04-26T09:10:33.968Z,62.80
2023-04-26T09:15:40.759Z,61.85
2023-04-26T09:21:03.853Z,64.55
2023-04-26T09:26:21.303Z,62.32
2023-04-26T09:31:46.340Z,61.90
2023-04-26T09:36:57.614Z,61.66
2023-04-26T09:42:05.026Z,62.28
2023-04-26T09:47:13.489Z,61.22
2023-04-26T09:52:22.501Z,60.56
2023-04-26T09:57:29.026Z,62.10
2023-04-26T10:02:36.214Z,61.22
2023-04-26T10:07:44.411Z,58.75
2023-04-26T10:12:50.864Z,59.66
2023-04-26T10:17:57.328Z,60.74
2023-04-26T10:23:10.339Z,60.62
2023-04-26T10:28:17.818Z,61.92
2023-04-26T10:33:26.749Z,62.05
2023-04-26T10:38:35.898Z,61.76
2023-04-26T10:43:43.332Z,61.15
2023-04-26T10:48:50.267Z,60.15
2023-04-26T10:54:04.946Z,59.00
2023-04-26T11:04:22.841Z,58.78
2023-04-26T11:09:42.074Z,58.25
2023-04-26T11:14:48.716Z,58.39
2023-04-26T11:19:55.598Z,58.85
2023-04-26T11:25:04.831Z,57.10
2023-04-26T11:30:13.835Z,56.49
2023-04-26T11:35:20.956Z,57.50
2023-04-26T11:40:33.073Z,57.13
2023-04-26T11:45:40.514Z,56.83
2023-04-26T11:50:48.938Z,58.04
2023-04-26T11:55:56.998Z,57.04
2023-04-26T12:01:04.629Z,56.85
2023-04-26T12:06:12.986Z,56.05
2023-04-26T12:11:20.809Z,57.41
2023-04-26T12:16:27.528Z,57.48
2023-04-26T12:21:43.895Z,56.79
2023-04-26T12:26:51.722Z,56.75
2023-04-26T12:31:58.275Z,55.65
2023-04-26T12:37:05.752Z,56.14
2023-04-26T12:42:13.701Z,56.94
2023-04-26T12:47:20.278Z,55.26
2023-04-26T12:52:26.943Z,54.94
2023-04-26T12:57:35.077Z,56.24
2023-04-26T13:02:43.346Z,56.71
2023-04-26T13:07:50.317Z,58.66
2023-04-26T13:12:59.670Z,55.93
2023-04-26T13:18:07.425Z,55.92
2023-04-26T13:23:14.111Z,56.94
2023-04-26T13:28:22.516Z,56.06
2023-04-26T13:33:29.535Z,56.03
2023-04-26T13:38:36.554Z,56.55
2023-04-26T13:43:46.519Z,56.59
2023-04-26T13:48:53.241Z,56.39
2023-04-26T13:54:00.348Z,57.75
2023-04-26T13:59:08.800Z,58.03
2023-04-26T14:04:16.768Z,57.53
2023-04-26T14:09:24.564Z,57.81
2023-04-26T14:14:32.882Z,57.61
2023-04-26T14:19:39.686Z,58.25
2023-04-26T14:24:46.398Z,57.77
2023-04-26T14:29:56.322Z,57.82
2023-04-26T14:35:03.017Z,56.86
2023-04-26T14:40:13.675Z,58.14
2023-04-26T14:45:27.767Z,57.00
2023-04-26T14:50:40.355Z,57.11
2023-04-26T14:55:46.917Z,55.31
2023-04-26T15:00:56.375Z,55.79
2023-04-26T15:06:02.994Z,56.17
2023-04-26T15:11:09.366Z,55.58
2023-04-26T15:16:17.841Z,56.54
2023-04-26T15:21:24.514Z,55.85
2023-04-26T15:26:31.393Z,56.83
2023-04-26T15:31:43.976Z,56.46
2023-04-26T15:36:50.800Z,56.94
2023-04-26T15:41:58.185Z,57.49
2023-04-26T15:47:06.320Z,56.73
2023-04-26T15:52:13.247Z,55.32
2023-04-26T15:57:19.775Z,56.45
2023-04-26T16:02:27.893Z,57.31
2023-04-26T16:07:35.322Z,57.16
2023-04-26T16:12:43.830Z,55.66
2023-04-26T16:17:51.937Z,56.25
2023-04-26T16:22:59.011Z,56.51
2023-04-26T16:28:05.766Z,56.99
2023-04-26T16:33:14.122Z,56.61
2023-04-26T16:38:21.074Z,57.36
2023-04-26T16:43:28.635Z,56.98
2023-04-26T16:48:38.605Z,57.18
2023-04-26T16:53:45.176Z,57.76
2023-04-26T16:58:52.024Z,55.69
2023-04-26T17:04:00.454Z,54.18
2023-04-26T17:09:09.037Z,54.41
2023-04-26T17:14:16.447Z,54.73
2023-04-26T17:19:24.531Z,55.47
2023-04-26T17:24:31.522Z,54.45
2023-04-26T17:29:38.116Z,56.20
2023-04-26T17:34:47.646Z,56.90
2023-04-26T17:39:55.097Z,58.24
2023-04-26T17:45:06.568Z,58.91
2023-04-26T17:50:15.834Z,59.75
2023-04-26T17:55:23.968Z,60.85
2023-04-26T18:00:31.269Z,61.47
2023-04-26T18:05:39.786Z,61.79
2023-04-26T18:10:48.560Z,62.43
2023-04-26T18:16:00.474Z,62.70
2023-04-26T18:21:09.316Z,62.82
2023-04-26T18:26:17.335Z,63.43
2023-04-26T18:31:24.836Z,63.14
2023-04-26T18:36:33.375Z,63.40
2023-04-26T18:41:43.215Z,64.23
2023-04-26T18:46:52.897Z,64.37
2023-04-26T18:52:02.530Z,64.86
2023-04-26T18:57:12.426Z,65.22
2023-04-26T19:02:22.294Z,63.92
2023-04-26T19:07:31.190Z,64.38
2023-04-26T19:12:41.860Z,64.85
2023-04-26T19:17:56.354Z,65.26
2023-04-26T19:23:07.997Z,66.64
2023-04-26T19:28:17.987Z,66.80
2023-04-26T19:33:27.240Z,67.41
2023-04-26T19:38:38.001Z,67.95
2023-04-26T19:43:47.984Z,67.40
2023-04-26T19:48:55.948Z,67.93
2023-04-26T19:54:05.796Z,68.52
2023-04-26T19:59:16.200Z,69.43
2023-04-26T20:04:23.693Z,69.84
2023-04-26T20:09:35.368Z,69.93
2023-04-26T20:14:43.527Z,69.70
2023-04-26T20:19:53.343Z,70.11
2023-04-26T20:25:02.914Z,70.14
2023-04-26T20:30:13.486Z,71.14
2023-04-26T20:35:22.318Z,71.03
2023-04-26T20:40:34.871Z,71.65
2023-04-26T20:45:44.466Z,71.78
2023-04-26T20:50:52.652Z,72.33
2023-04-26T20:56:00.972Z,72.20
2023-04-26T21:01:08.397Z,72.67
2023-04-26T21:06:15.367Z,72.81
2023-04-26T21:11:23.706Z,73.03
2023-04-26T21:16:31.171Z,73.19
2023-04-26T21:21:38.111Z,73.21
2023-04-26T21:26:46.140Z,73.28
2023-04-26T21:31:53.984Z,73.75
2023-04-26T21:37:00.885Z,73.84
2023-04-26T21:42:09.251Z,73.86
2023-04-26T21:47:16.113Z,74.10
2023-04-26T21:52:22.455Z,74.29
2023-04-26T21:57:30.491Z,75.24
2023-04-26T22:02:37.013Z,75.77
2023-04-26T22:07:43.542Z,76.14
2023-04-26T22:12:51.763Z,76.80
2023-04-26T22:17:58.428Z,77.11
2023-04-26T22:23:05.152Z,77.95
2023-04-26T22:28:14.039Z,77.50
2023-04-26T22:33:20.949Z,77.52
2023-04-26T22:38:28.039Z,77.94
2023-04-26T22:43:36.758Z,77.86
2023-04-26T22:48:43.378Z,77.93
2023-04-26T22:53:49.968Z,77.54
2023-04-26T22:58:58.006Z,78.63
2023-04-26T23:04:04.657Z,78.20
2023-04-26T23:09:11.879Z,78.17
2023-04-26T23:14:20.679Z,100.00
2023-04-26T23:24:32.990Z,78.59
2023-04-26T23:29:41.300Z,78.99
2023-04-26T23:34:47.973Z,79.16
2023-04-26T23:39:54.976Z,78.84
2023-04-26T23:45:03.677Z,78.58
2023-04-26T23:50:11.062Z,78.70
2023-04-26T23:55:17.474Z,78.83
